createdAt,value
2023-04-26T00:02:07.685Z,6.87
2023-04-26T00:04:35.937Z,6.84
2023-04-26T00:07:04.075Z,6.84
2023-04-26T00:09:32.286Z,6.84
2023-04-26T00:12:00.298Z,6.83
2023-04-26T00:14:28.008Z,6.81
2023-04-26T00:16:56.454Z,6.79
2023-04-26T00:19:24.973Z,6.77
2023-04-26T00:21:52.697Z,6.77
2023-04-26T00:24:21.082Z,6.77
2023-04-26T00:26:48.899Z,6.75
2023-04-26T00:29:16.625Z,6.73
2023-04-26T00:31:44.463Z,6.69
2023-04-26T00:34:12.401Z,6.71
2023-04-26T00:36:40.225Z,6.67
2023-04-26T00:39:09.271Z,6.63
2023-04-26T00:41:37.036Z,6.64
2023-04-26T00:44:05.030Z,6.64
2023-04-26T00:46:32.884Z,6.62
2023-04-26T00:49:00.640Z,6.61
2023-04-26T00:51:28.582Z,6.59
2023-04-26T00:53:56.888Z,6.55
2023-04-26T00:56:25.497Z,6.54
2023-04-26T00:58:53.510Z,6.53
2023-04-26T01:01:22.714Z,6.47
2023-04-26T01:03:50.637Z,6.42
2023-04-26T01:06:18.591Z,6.37
2023-04-26T01:08:47.207Z,6.33
2023-04-26T01:11:15.193Z,6.30
2023-04-26T01:13:43.534Z,6.29
2023-04-26T01:16:12.233Z,6.27
2023-04-26T01:18:41.695Z,6.24
2023-04-26T01:21:11.491Z,6.19
2023-04-26T01:23:39.307Z,6.16
2023-04-26T01:26:07.024Z,6.13
2023-04-26T01:28:34.724Z,6.13
2023-04-26T01:31:05.168Z,6.12
2023-04-26T01:33:32.978Z,6.11
2023-04-26T01:36:00.769Z,6.10
2023-04-26T01:38:30.054Z,6.11
2023-04-26T01:40:57.864Z,6.11
2023-04-26T01:43:25.637Z,6.11
2023-04-26T01:45:53.463Z,6.12
2023-04-26T01:48:40.972Z,6.14
2023-04-26T01:51:08.711Z,6.15
2023-04-26T01:53:36.735Z,6.17
2023-04-26T01:56:05.985Z,6.19
2023-04-26T01:58:33.746Z,6.19
2023-04-26T02:01:07.116Z,6.18
2023-04-26T02:03:35.802Z,6.18
2023-04-26T02:06:04.241Z,6.18
2023-04-26T02:08:32.043Z,6.21
2023-04-26T02:10:59.912Z,6.22
2023-04-26T02:13:27.610Z,6.23
2023-04-26T02:15:55.867Z,6.25
2023-04-26T02:18:23.758Z,6.27
2023-04-26T02:20:51.702Z,6.26
2023-04-26T02:23:20.237Z,6.26
2023-04-26T02:25:49.091Z,6.24
2023-04-26T02:28:19.227Z,6.22
2023-04-26T02:30:46.961Z,6.21
2023-04-26T02:33:14.690Z,6.19
2023-04-26T02:35:42.736Z,6.21
2023-04-26T02:38:11.722Z,6.18
2023-04-26T02:40:39.525Z,6.15
2023-04-26T02:43:08.093Z,6.10
2023-04-26T02:45:42.029Z,6.06
2023-04-26T02:48:11.348Z,5.97
2023-04-26T02:50:39.361Z,5.92
2023-04-26T02:53:07.254Z,5.83
2023-04-26T02:55:34.996Z,5.76
2023-04-26T02:58:02.865Z,5.71
2023-04-26T03:00:30.834Z,5.65
2023-04-26T03:02:58.735Z,5.55
2023-04-26T03:05:26.514Z,5.49
2023-04-26T03:07:54.355Z,5.41
2023-04-26T03:10:22.063Z,5.33
2023-04-26T03:12:50.347Z,5.24
2023-04-26T03:15:18.420Z,5.18
2023-04-26T03:17:46.582Z,5.12
2023-04-26T03:20:15.416Z,5.05
2023-04-26T03:22:43.747Z,4.98
2023-04-26T03:25:11.805Z,4.96
2023-04-26T03:27:39.548Z,4.88
2023-04-26T03:30:08.369Z,4.80
2023-04-26T03:32:36.932Z,4.73
2023-04-26T03:35:05.477Z,4.67
2023-04-26T03:37:33.301Z,4.61
2023-04-26T03:40:08.432Z,4.53
2023-04-26T03:42:36.991Z,4.47
2023-04-26T03:45:05.571Z,4.43
2023-04-26T03:47:33.594Z,4.38
2023-04-26T03:50:01.658Z,4.32
2023-04-26T03:52:29.370Z,4.26
2023-04-26T03:54:57.623Z,4.19
2023-04-26T03:57:25.716Z,4.18
2023-04-26T03:59:53.723Z,4.14
2023-04-26T04:02:21.928Z,4.10
2023-04-26T04:04:50.246Z,4.07
2023-04-26T04:07:19.121Z,4.06
2023-04-26T04:09:46.984Z,4.03
2023-04-26T04:12:15.356Z,4.03
2023-04-26T04:14:44.087Z,4.04
2023-04-26T04:17:12.100Z,4.06
2023-04-26T04:19:40.220Z,4.09
2023-04-26T04:22:08.357Z,4.08
2023-04-26T04:24:37.466Z,4.13
2023-04-26T04:27:05.251Z,4.13
2023-04-26T04:29:33.780Z,4.16
2023-04-26T04:32:02.162Z,4.15
2023-04-26T04:34:30.288Z,4.17
2023-04-26T04:36:58.146Z,4.21
2023-04-26T04:39:26.068Z,4.18
2023-04-26T04:41:54.475Z,4.19
2023-04-26T04:44:24.084Z,4.21
2023-04-26T04:46:53.330Z,4.23
2023-04-26T04:49:21.359Z,4.26
2023-04-26T04:51:49.412Z,4.24
2023-04-26T04:54:18.643Z,4.26
2023-04-26T04:56:48.504Z,4.26
2023-04-26T04:59:17.269Z,4.29
2023-04-26T05:01:45.329Z,4.27
2023-04-26T05:04:15.706Z,4.31
2023-04-26T05:06:44.535Z,4.39
2023-04-26T05:09:13.233Z,4.48
2023-04-26T05:11:41.807Z,4.55
2023-04-26T05:14:11.415Z,4.63
2023-04-26T05:16:39.272Z,4.70
2023-04-26T05:19:09.385Z,4.79
2023-04-26T05:21:37.934Z,4.88
2023-04-26T05:24:07.126Z,4.99
2023-04-26T05:26:36.781Z,5.09
2023-04-26T05:29:31.144Z,5.14
2023-04-26T05:31:59.027Z,5.22
2023-04-26T05:34:53.012Z,5.33
2023-04-26T05:37:21.246Z,5.42
2023-04-26T05:39:49.454Z,5.50
2023-04-26T05:42:18.281Z,5.57
2023-04-26T05:44:46.455Z,5.62
2023-04-26T05:47:14.473Z,5.65
2023-04-26T05:49:42.515Z,5.73
2023-04-26T05:52:10.275Z,5.81
2023-04-26T05:54:38.095Z,5.85
2023-04-26T05:57:06.156Z,5.91
2023-04-26T05:59:37.251Z,5.99
2023-04-26T06:02:05.484Z,6.09
2023-04-26T06:04:33.556Z,6.18
2023-04-26T06:07:05.416Z,6.31
2023-04-26T06:09:33.365Z,6.46
2023-04-26T06:12:01.785Z,6.56
2023-04-26T06:14:30.984Z,6.60
2023-04-26T06:17:02.303Z,6.59
2023-04-26T06:19:30.204Z,6.67
2023-04-26T06:21:57.964Z,6.73
2023-04-26T06:24:26.102Z,6.77
2023-04-26T06:26:53.975Z,6.84
2023-04-26T06:29:21.953Z,6.87
2023-04-26T06:31:49.880Z,6.94
2023-04-26T06:37:47.253Z,7.21
2023-04-26T06:40:15.984Z,7.29
2023-04-26T06:42:44.052Z,7.39
2023-04-26T06:45:24.373Z,7.48
2023-04-26T06:47:53.342Z,7.51
2023-04-26T06:50:24.268Z,7.58
2023-04-26T06:52:52.165Z,7.76
2023-04-26T06:55:20.713Z,7.81
2023-04-26T06:57:50.620Z,7.84
2023-04-26T07:00:19.030Z,7.89
2023-04-26T07:02:46.900Z,7.97
2023-04-26T07:05:15.532Z,8.05
2023-04-26T07:07:43.483Z,8.09
2023-04-26T07:10:11.252Z,8.10
2023-04-26T07:12:39.060Z,8.07
2023-04-26T07:15:07.615Z,8.12
2023-04-26T07:17:35.352Z,8.28
2023-04-26T07:20:04.154Z,8.40
2023-04-26T07:22:31.953Z,8.47
2023-04-26T07:24:59.670Z,8.63
2023-04-26T07:27:27.440Z,8.85
2023-04-26T07:29:56.360Z,8.97
2023-04-26T07:32:24.269Z,8.85
2023-04-26T07:34:52.037Z,8.74
2023-04-26T07:37:19.767Z,8.82
2023-04-26T07:39:47.684Z,9.01
2023-04-26T07:42:15.523Z,9.24
2023-04-26T07:44:43.264Z,9.17
2023-04-26T07:47:14.506Z,9.02
2023-04-26T07:49:42.791Z,8.96
2023-04-26T07:52:10.557Z,9.14
2023-04-26T07:54:40.047Z,9.39
2023-04-26T07:57:07.678Z,9.60
2023-04-26T07:59:35.406Z,9.76
2023-04-26T08:02:03.285Z,9.78
2023-04-26T08:04:34.518Z,9.67
2023-04-26T08:07:02.751Z,9.70
2023-04-26T08:09:30.850Z,9.85
2023-04-26T08:11:58.943Z,9.94
2023-04-26T08:14:27.209Z,9.89
2023-04-26T08:16:54.943Z,9.81
2023-04-26T08:19:23.186Z,9.64
2023-04-26T08:21:51.043Z,9.57
2023-04-26T08:24:18.804Z,9.46
2023-04-26T08:26:46.613Z,9.43
2023-04-26T08:29:15.031Z,9.38
2023-04-26T08:31:42.857Z,9.24
2023-04-26T08:34:11.680Z,9.05
2023-04-26T08:36:42.856Z,8.98
2023-04-26T08:39:12.285Z,9.31
2023-04-26T08:41:43.605Z,9.56
2023-04-26T08:44:11.838Z,9.76
2023-04-26T08:46:48.069Z,9.78
2023-04-26T08:49:36.090Z,9.49
2023-04-26T08:52:04.837Z,9.46
2023-04-26T08:54:32.962Z,10.07
2023-04-26T08:57:01.941Z,10.56
2023-04-26T08:59:31.306Z,10.58
2023-04-26T09:02:01.375Z,10.38
2023-04-26T09:04:29.461Z,10.02
2023-04-26T09:07:01.893Z,9.84
2023-04-26T09:09:38.062Z,9.57
2023-04-26T09:12:06.176Z,9.48
2023-04-26T09:14:34.456Z,9.51
2023-04-26T09:17:02.286Z,9.84
2023-04-26T09:19:42.716Z,9.82
2023-04-26T09:22:11.013Z,9.81
2023-04-26T09:24:50.363Z,9.76
2023-04-26T09:27:19.176Z,9.65
2023-04-26T09:30:10.647Z,9.86
2023-04-26T09:32:44.629Z,9.92
2023-04-26T09:35:39.894Z,9.79
2023-04-26T09:38:13.514Z,9.86
2023-04-26T09:40:46.897Z,10.43
2023-04-26T09:43:16.733Z,10.63
2023-04-26T09:45:50.182Z,10.57
2023-04-26T09:48:23.355Z,10.31
2023-04-26T09:50:53.245Z,9.99
2023-04-26T09:53:27.720Z,10.12
2023-04-26T09:55:56.573Z,10.88
2023-04-26T09:58:24.525Z,11.58
2023-04-26T10:00:53.177Z,12.27
2023-04-26T10:03:21.316Z,12.23
2023-04-26T10:05:49.424Z,12.07
2023-04-26T10:08:17.252Z,12.29
2023-04-26T10:10:47.852Z,12.68
2023-04-26T10:13:16.886Z,12.59
2023-04-26T10:15:45.132Z,12.03
2023-04-26T10:18:13.146Z,11.57
2023-04-26T10:20:44.946Z,11.20
2023-04-26T10:23:25.494Z,10.87
2023-04-26T10:25:55.584Z,10.94
2023-04-26T10:28:50.844Z,11.68
2023-04-26T10:31:21.353Z,11.62
2023-04-26T10:34:18.960Z,11.21
2023-04-26T10:37:17.245Z,10.82
2023-04-26T10:39:46.885Z,10.40
2023-04-26T10:42:24.084Z,10.37
2023-04-26T10:44:56.611Z,11.06
2023-04-26T10:47:37.418Z,11.46
2023-04-26T10:50:09.870Z,11.52
2023-04-26T10:53:05.591Z,11.39
2023-04-26T10:55:42.978Z,11.40
2023-04-26T10:58:31.626Z,11.34
2023-04-26T11:01:08.515Z,11.13
2023-04-26T11:03:37.189Z,10.80
2023-04-26T11:06:09.899Z,10.60
2023-04-26T11:08:37.748Z,10.67
2023-04-26T11:11:13.512Z,10.89
2023-04-26T11:13:43.119Z,10.87
2023-04-26T11:16:13.691Z,10.74
2023-04-26T11:18:44.515Z,10.52
2023-04-26T11:21:17.567Z,10.39
2023-04-26T11:23:55.307Z,10.18
2023-04-26T11:26:24.743Z,10.38
2023-04-26T11:28:52.659Z,11.17
2023-04-26T11:31:21.299Z,11.85
2023-04-26T11:39:22.707Z,12.97
2023-04-26T11:41:50.725Z,13.17
2023-04-26T11:44:21.169Z,13.28
2023-04-26T11:46:49.332Z,13.20
2023-04-26T11:49:17.645Z,12.96
2023-04-26T11:51:49.753Z,12.73
2023-04-26T11:54:37.851Z,12.39
2023-04-26T11:57:17.229Z,12.01
2023-04-26T11:59:46.287Z,11.77
2023-04-26T12:02:14.357Z,11.44
2023-04-26T12:04:44.214Z,11.14
2023-04-26T12:07:12.143Z,10.99
2023-04-26T12:09:44.645Z,10.96
2023-04-26T12:12:12.546Z,10.77
2023-04-26T12:14:40.869Z,10.49
2023-04-26T12:17:10.362Z,10.35
2023-04-26T12:19:39.022Z,10.07
2023-04-26T12:22:08.468Z,9.90
2023-04-26T12:24:37.505Z,9.79
2023-04-26T12:27:07.306Z,9.70
2023-04-26T12:29:35.678Z,9.61
2023-04-26T12:32:04.381Z,9.61
2023-04-26T12:34:33.043Z,9.70
2023-04-26T12:37:01.117Z,9.74
2023-04-26T12:39:28.924Z,9.82
2023-04-26T12:41:57.045Z,9.71
2023-04-26T12:44:25.074Z,9.66
2023-04-26T12:46:52.839Z,9.69
2023-04-26T12:49:20.615Z,9.70
2023-04-26T12:51:48.328Z,9.63
2023-04-26T12:54:16.285Z,9.46
2023-04-26T12:56:45.027Z,9.39
2023-04-26T12:59:12.912Z,9.37
2023-04-26T13:01:41.276Z,9.32
2023-04-26T13:04:10.208Z,9.40
2023-04-26T13:06:38.229Z,9.71
2023-04-26T13:09:08.273Z,10.11
2023-04-26T13:11:36.310Z,10.31
2023-04-26T13:14:04.443Z,10.35
2023-04-26T13:16:33.469Z,10.31
2023-04-26T13:19:01.443Z,10.26
2023-04-26T13:21:29.446Z,10.13
2023-04-26T13:23:57.291Z,10.00
2023-04-26T13:26:27.097Z,9.90
2023-04-26T13:28:55.933Z,9.83
2023-04-26T13:31:23.877Z,9.66
2023-04-26T13:33:51.743Z,9.48
2023-04-26T13:36:19.611Z,9.40
2023-04-26T13:38:47.640Z,9.43
2023-04-26T13:41:15.505Z,9.47
2023-04-26T13:43:43.312Z,9.67
2023-04-26T13:46:11.260Z,9.88
2023-04-26T13:48:39.102Z,10.01
2023-04-26T13:51:07.252Z,10.06
2023-04-26T13:53:35.094Z,9.89
2023-04-26T13:56:02.975Z,9.77
2023-04-26T13:58:30.717Z,9.56
2023-04-26T14:00:58.465Z,9.38
2023-04-26T14:03:27.134Z,9.28
2023-04-26T14:05:56.643Z,9.32
2023-04-26T14:08:24.512Z,9.35
2023-04-26T14:10:53.027Z,9.36
2023-04-26T14:13:21.555Z,9.40
2023-04-26T14:15:49.558Z,9.36
2023-04-26T14:18:17.780Z,9.25
2023-04-26T14:20:46.757Z,9.15
2023-04-26T14:23:14.546Z,9.06
2023-04-26T14:25:42.533Z,9.01
2023-04-26T14:28:10.488Z,8.94
2023-04-26T14:30:38.464Z,8.90
2023-04-26T14:33:06.247Z,8.94
2023-04-26T14:35:34.018Z,8.99
2023-04-26T14:38:01.784Z,9.03
2023-04-26T14:40:30.219Z,9.04
2023-04-26T14:42:58.012Z,9.07
2023-04-26T14:45:37.024Z,9.05
2023-04-26T14:48:12.504Z,9.01
2023-04-26T14:50:40.707Z,8.98
2023-04-26T14:53:09.758Z,8.97
2023-04-26T14:55:37.733Z,9.05
2023-04-26T14:58:05.779Z,9.09
2023-04-26T15:00:33.840Z,9.09
2023-04-26T15:03:01.971Z,9.00
2023-04-26T15:05:29.890Z,8.97
2023-04-26T15:07:57.800Z,8.90
2023-04-26T15:10:25.779Z,8.86
2023-04-26T15:12:53.625Z,8.83
2023-04-26T15:15:21.572Z,8.80
2023-04-26T15:17:49.482Z,8.74
2023-04-26T15:20:18.751Z,8.65
2023-04-26T15:22:46.709Z,8.57
2023-04-26T15:25:14.545Z,8.52
2023-04-26T15:27:42.519Z,8.46
2023-04-26T15:30:10.938Z,8.39
2023-04-26T15:32:38.845Z,8.35
2023-04-26T15:35:07.953Z,8.30
2023-04-26T15:37:36.823Z,8.25
2023-04-26T15:40:06.218Z,8.22
2023-04-26T15:42:33.929Z,8.21
2023-04-26T15:45:02.507Z,8.20
2023-04-26T15:47:30.463Z,8.20
2023-04-26T15:50:03.720Z,8.23
2023-04-26T15:52:38.543Z,8.30
2023-04-26T15:55:08.619Z,8.29
2023-04-26T15:57:36.773Z,8.30
2023-04-26T16:00:09.082Z,8.30
2023-04-26T16:02:37.117Z,8.32
2023-04-26T16:05:07.236Z,8.32
2023-04-26T16:07:35.357Z,8.31
2023-04-26T16:10:03.902Z,8.24
2023-04-26T16:12:31.965Z,8.21
2023-04-26T16:14:59.761Z,8.17
2023-04-26T16:17:27.584Z,8.16
2023-04-26T16:19:55.894Z,8.09
2023-04-26T16:22:23.729Z,8.05
2023-04-26T16:24:51.543Z,8.01
2023-04-26T16:27:22.592Z,8.00
2023-04-26T16:29:50.365Z,7.96
2023-04-26T16:32:18.214Z,7.98
2023-04-26T16:34:46.085Z,7.97
2023-04-26T16:37:14.833Z,8.00
2023-04-26T16:39:42.632Z,7.99
2023-04-26T16:42:10.620Z,7.99
2023-04-26T16:44:38.461Z,7.99
2023-04-26T16:47:06.807Z,7.99
2023-04-26T16:49:34.812Z,7.97
2023-04-26T16:52:02.578Z,7.98
2023-04-26T16:54:30.352Z,7.97
2023-04-26T16:56:58.366Z,7.96
2023-04-26T16:59:26.234Z,7.95
2023-04-26T17:01:54.614Z,7.94
2023-04-26T17:04:22.633Z,7.91
2023-04-26T17:06:50.859Z,7.90
2023-04-26T17:09:18.748Z,7.89
2023-04-26T17:11:46.936Z,7.89
2023-04-26T17:14:15.601Z,7.90
2023-04-26T17:16:43.524Z,7.89
2023-04-26T17:19:11.695Z,7.88
2023-04-26T17:21:39.455Z,7.85
2023-04-26T17:24:08.865Z,7.80
2023-04-26T17:26:36.962Z,7.77
2023-04-26T17:29:04.928Z,7.72
2023-04-26T17:31:32.942Z,7.69
2023-04-26T17:34:03.296Z,7.62
2023-04-26T17:36:32.475Z,7.57
2023-04-26T17:39:00.646Z,7.53
2023-04-26T17:41:28.480Z,7.48
2023-04-26T17:43:56.294Z,7.44
2023-04-26T17:46:24.132Z,7.44
2023-04-26T17:48:52.206Z,7.42
2023-04-26T17:51:20.022Z,7.39
2023-04-26T17:53:47.795Z,7.35
2023-04-26T17:56:15.573Z,7.36
2023-04-26T17:58:43.496Z,7.35
2023-04-26T18:01:11.525Z,7.34
2023-04-26T18:03:39.663Z,7.33
2023-04-26T18:06:07.624Z,7.30
2023-04-26T18:08:35.492Z,7.25
2023-04-26T18:11:03.265Z,7.18
2023-04-26T18:13:31.599Z,7.12
2023-04-26T18:15:59.432Z,7.03
2023-04-26T18:18:29.637Z,6.94
2023-04-26T18:20:57.800Z,6.89
2023-04-26T18:23:25.785Z,6.87
2023-04-26T18:25:53.539Z,6.80
2023-04-26T18:28:22.077Z,6.73
2023-04-26T18:30:49.841Z,6.66
2023-04-26T18:33:17.844Z,6.59
2023-04-26T18:35:49.069Z,6.53
2023-04-26T18:38:17.719Z,6.47
2023-04-26T18:40:49.786Z,6.42
2023-04-26T18:43:17.937Z,6.33
2023-04-26T18:45:45.964Z,6.29
2023-04-26T18:48:13.782Z,6.23
2023-04-26T18:50:48.983Z,6.16
2023-04-26T18:53:17.556Z,6.09
2023-04-26T18:55:45.415Z,6.01
2023-04-26T18:58:13.390Z,5.93
2023-04-26T19:00:41.230Z,5.84
2023-04-26T19:03:09.194Z,5.75
2023-04-26T19:05:41.301Z,5.66
2023-04-26T19:08:09.682Z,5.57
2023-04-26T19:10:37.791Z,5.49
2023-04-26T19:13:05.850Z,5.40
2023-04-26T19:15:33.553Z,5.30
2023-04-26T19:18:01.581Z,5.24
2023-04-26T19:20:29.544Z,5.18
2023-04-26T19:22:57.297Z,5.13
2023-04-26T19:25:26.758Z,5.10
2023-04-26T19:27:54.586Z,5.06
2023-04-26T19:30:22.352Z,4.99
2023-04-26T19:32:51.070Z,4.94
2023-04-26T19:35:19.059Z,4.91
2023-04-26T19:37:46.892Z,4.89
2023-04-26T19:40:14.968Z,4.86
2023-04-26T19:42:42.753Z,4.83
2023-04-26T19:45:11.016Z,4.81
2023-04-26T19:47:41.736Z,4.77
2023-04-26T19:50:10.186Z,4.74
2023-04-26T19:52:37.917Z,4.72
2023-04-26T19:55:05.852Z,4.66
2023-04-26T19:57:33.814Z,4.63
2023-04-26T20:00:01.761Z,4.60
2023-04-26T20:02:35.051Z,4.59
2023-04-26T20:05:03.369Z,4.56
2023-04-26T20:07:31.802Z,4.55
2023-04-26T20:09:59.847Z,4.54
2023-04-26T20:12:27.630Z,4.54
2023-04-26T20:14:55.439Z,4.52
2023-04-26T20:17:23.289Z,4.50
2023-04-26T20:19:51.728Z,4.48
2023-04-26T20:22:19.457Z,4.41
2023-04-26T20:24:47.383Z,4.33
2023-04-26T20:27:15.120Z,4.29
2023-04-26T20:29:42.863Z,4.25
2023-04-26T20:32:10.658Z,4.21
2023-04-26T20:34:38.672Z,4.17
2023-04-26T20:37:06.456Z,4.12
2023-04-26T20:39:34.194Z,4.06
2023-04-26T20:42:02.357Z,4.02
2023-04-26T20:44:30.115Z,3.98
2023-04-26T20:46:57.970Z,3.94
2023-04-26T20:49:25.757Z,3.89
2023-04-26T20:51:54.620Z,3.82
2023-04-26T20:54:22.425Z,3.78
2023-04-26T20:56:50.237Z,3.70
2023-04-26T20:59:18.034Z,3.65
2023-04-26T21:01:46.043Z,3.61
2023-04-26T21:04:14.000Z,3.57
2023-04-26T21:06:41.842Z,3.51
2023-04-26T21:09:09.828Z,3.47
2023-04-26T21:11:37.780Z,3.44
2023-04-26T21:14:06.850Z,3.38
2023-04-26T21:16:35.597Z,3.36
2023-04-26T21:19:03.567Z,3.32
2023-04-26T21:21:32.556Z,3.28
2023-04-26T21:24:00.951Z,3.26
2023-04-26T21:26:28.777Z,3.22
2023-04-26T21:28:56.576Z,3.19
2023-04-26T21:31:24.414Z,3.15
2023-04-26T21:33:53.360Z,3.12
2023-04-26T21:39:06.713Z,3.11
2023-04-26T21:41:34.525Z,3.05
2023-04-26T21:44:02.206Z,3.01
2023-04-26T21:46:30.212Z,3.00
2023-04-26T21:48:58.248Z,2.99
2023-04-26T21:51:25.973Z,2.96
2023-04-26T21:53:53.782Z,2.93
2023-04-26T21:56:21.785Z,2.91
2023-04-26T21:58:49.535Z,2.89
2023-04-26T22:01:17.511Z,2.88
2023-04-26T22:03:45.599Z,2.85
2023-04-26T22:06:13.465Z,2.83
2023-04-26T22:08:41.379Z,2.81
2023-04-26T22:11:09.229Z,2.75
2023-04-26T22:13:37.024Z,2.73
2023-04-26T22:16:05.156Z,2.71
2023-04-26T22:18:33.004Z,2.68
2023-04-26T22:21:01.052Z,2.67
2023-04-26T22:23:28.886Z,2.68
2023-04-26T22:25:58.192Z,2.68
2023-04-26T22:28:26.771Z,2.67
2023-04-26T22:30:54.559Z,2.65
2023-04-26T22:33:22.389Z,2.63
2023-04-26T22:35:50.187Z,2.63
2023-04-26T22:38:18.025Z,2.63
2023-04-26T22:40:45.818Z,2.61
2023-04-26T22:43:13.514Z,2.58
2023-04-26T22:45:41.354Z,2.56
2023-04-26T22:48:09.148Z,2.54
2023-04-26T22:50:36.961Z,2.53
2023-04-26T22:53:04.763Z,2.50
2023-04-26T22:55:32.607Z,2.48
2023-04-26T22:58:00.504Z,2.46
2023-04-26T23:00:28.299Z,2.45
2023-04-26T23:02:56.191Z,2.41
2023-04-26T23:05:24.093Z,2.39
2023-04-26T23:07:52.453Z,2.37
2023-04-26T23:10:20.473Z,2.35
2023-04-26T23:12:50.116Z,2.32
2023-04-26T23:15:18.674Z,2.29
2023-04-26T23:17:47.067Z,2.25
2023-04-26T23:20:15.925Z,2.24
2023-04-26T23:22:44.033Z,2.20
2023-04-26T23:25:11.899Z,2.19
2023-04-26T23:27:39.916Z,2.14
2023-04-26T23:30:08.389Z,2.12
2023-04-26T23:32:36.873Z,2.10
2023-04-26T23:35:05.571Z,2.10
2023-04-26T23:37:33.412Z,2.08
2023-04-26T23:40:01.489Z,2.08
2023-04-26T23:42:29.346Z,2.08
2023-04-26T23:44:57.059Z,2.08
2023-04-26T23:47:25.510Z,2.09
2023-04-26T23:49:53.435Z,2.08
2023-04-26T23:52:21.272Z,2.07
2023-04-26T23:54:49.098Z,2.06
2023-04-26T23:57:16.993Z,2.05
2023-04-26T23:59:44.796Z,2.03
